Temp: 8.4°C   Baro: 995.1mb
  Wind: 4.0mph   Dir: SW (222°)
  Rain: 0.0mm (0.0mm/hr)
  Solar: 0W/m2  Hum: 88%
 
Bath Spa Weather Station Historical Data
Daily Summary for September 15, 2020 Units:  Metric    English   Both
Daily Weekly Monthly Yearly Custom
  High: Low: Average:
Temperature: 24.8 °C 12.7 °C 18.5 °C
Dew Point: 18.5 °C 11.3 °C 14.7 °C
Humidity: 91% 60.6% 77%
Wind Speed: 15.1km/h 0km/h 3.5km/h
Wind Gust: 24.1km/h - -
Wind- - West
Pressure: 1020.9 hPa 1016.5 hPa -
Precipitation: 0 mm    
Historical Graphs
 
 
Tabular Data for September 15, 2020
Time Temperature Dew Point Pressure Wind Wind Speed Wind Gust Humidity Rainfall Rate (Hourly) solar
00:04 16.6 °C 12.8 °C 1017.8 hPa ESE 0.3 km/h 3.2 km/h 76% 0 mm 0 W/m2
00:09 16.6 °C 12.8 °C 1017.8 hPa Calm     76% 0 mm 0 W/m2
00:14 16.4 °C 12.7 °C 1017.5 hPa Calm   1.6 km/h 76% 0 mm 0 W/m2
00:19 16.3 °C 12.6 °C 1017.5 hPa Calm   1.6 km/h 76% 0 mm 0 W/m2
00:24 16.3 °C 12.5 °C 1017.5 hPa ESE 0.3 km/h 3.2 km/h 76% 0 mm 0 W/m2
00:29 16.3 °C 12.5 °C 1017.5 hPa Calm   3.2 km/h 76% 0 mm 0 W/m2
00:34 16.2 °C 12.4 °C 1017.5 hPa Calm     76% 0 mm 0 W/m2
00:39 16.2 °C 12.4 °C 1017.5 hPa Calm     76.2% 0 mm 0 W/m2
00:44 15.8 °C 12.3 °C 1017.5 hPa ESE 0.6 km/h 3.2 km/h 76.8% 0 mm 0 W/m2
00:48 15.8 °C 12.4 °C 1017.5 hPa ESE 1.1 km/h 4.8 km/h 77.5% 0 mm 0 W/m2
00:54 15.7 °C 12.4 °C 1017.5 hPa ESE 0.6 km/h 3.2 km/h 78% 0 mm 0 W/m2
00:59 15.6 °C 12.5 °C 1017.5 hPa ESE 0.3 km/h 3.2 km/h 78.8% 0 mm 0 W/m2
01:04 15.6 °C 12.5 °C 1017.5 hPa Calm   1.6 km/h 79% 0 mm 0 W/m2
01:09 15.4 °C 12.5 °C 1017.5 hPa Calm     79.8% 0 mm 0 W/m2
01:14 15.4 °C 12.5 °C 1017.5 hPa Calm     80% 0 mm 0 W/m2
01:19 15.4 °C 12.5 °C 1017.5 hPa Calm     80% 0 mm 0 W/m2
01:23 15.4 °C 12.5 °C 1017.5 hPa Calm     80% 0 mm 0 W/m2
01:29 15.3 °C 12.4 °C 1017.5 hPa Calm     80% 0 mm 0 W/m2
01:34 15.3 °C 12.4 °C 1017.5 hPa Calm     80.6% 0 mm 0 W/m2
01:39 15.2 °C 12.4 °C 1017.5 hPa Calm     81% 0 mm 0 W/m2
01:44 15.2 °C 12.4 °C 1017.5 hPa Calm     81% 0 mm 0 W/m2
01:49 15.2 °C 12.4 °C 1017.5 hPa Calm     81% 0 mm 0 W/m2
01:54 15 °C 12.3 °C 1017.5 hPa Calm     81% 0 mm 0 W/m2
01:59 14.8 °C 12.3 °C 1017.5 hPa Calm     82% 0 mm 0 W/m2
02:04 14.8 °C 12.2 °C 1017.5 hPa Calm     82% 0 mm 0 W/m2
02:09 14.7 °C 12.2 °C 1017.5 hPa Calm     82% 0 mm 0 W/m2
02:14 14.7 °C 12.3 °C 1017.5 hPa Calm     83% 0 mm 0 W/m2
02:19 14.7 °C 12.3 °C 1017.5 hPa Calm     83% 0 mm 0 W/m2
02:24 14.6 °C 12.2 °C 1017.5 hPa Calm     83% 0 mm 0 W/m2
02:29 14.5 °C 12.1 °C 1017.5 hPa Calm     83% 0 mm 0 W/m2
02:34 14.3 °C 11.9 °C 1017.5 hPa Calm     83% 0 mm 0 W/m2
02:39 14.3 °C 12.1 °C 1017.5 hPa ESE 1 km/h 4.8 km/h 83.8% 0 mm 0 W/m2
02:44 14.3 °C 12.1 °C 1017.5 hPa ESE 1.8 km/h 4.8 km/h 84% 0 mm 0 W/m2
02:49 14.3 °C 12.1 °C 1017.5 hPa ESE 0.3 km/h 3.2 km/h 84% 0 mm 0 W/m2
02:54 14.3 °C 12.1 °C 1017.5 hPa Calm     84% 0 mm 0 W/m2
02:59 14.2 °C 11.9 °C 1017.5 hPa Calm     84% 0 mm 0 W/m2
03:04 14.1 °C 11.9 °C 1017.5 hPa Calm     84.3% 0 mm 0 W/m2
03:09 14.1 °C 12.1 °C 1017.5 hPa Calm     85% 0 mm 0 W/m2
03:14 14 °C 12 °C 1017.5 hPa Calm     85% 0 mm 0 W/m2
03:19 13.9 °C 11.9 °C 1017.5 hPa Calm     85% 0 mm 0 W/m2
03:24 14 °C 12 °C 1017.5 hPa Calm     85% 0 mm 0 W/m2
03:29 14 °C 12 °C 1017.5 hPa Calm     85% 0 mm 0 W/m2
03:34 13.9 °C 11.9 °C 1017.2 hPa Calm     85% 0 mm 0 W/m2
03:39 13.9 °C 11.9 °C 1017.2 hPa Calm     85% 0 mm 0 W/m2
03:44 13.9 °C 12.1 °C 1017.2 hPa Calm     85.8% 0 mm 0 W/m2
03:49 13.8 °C 11.8 °C 1017.2 hPa Calm     85% 0 mm 0 W/m2
03:54 13.8 °C 11.9 °C 1017.2 hPa Calm     85.6% 0 mm 0 W/m2
03:59 13.7 °C 11.9 °C 1017.2 hPa Calm     86% 0 mm 0 W/m2
04:04 13.7 °C 11.9 °C 1017.2 hPa Calm     86% 0 mm 0 W/m2
04:09 13.6 °C 11.8 °C 1017.2 hPa Calm     86% 0 mm 0 W/m2
04:14 13.6 °C 11.8 °C 1017.2 hPa Calm     86% 0 mm 0 W/m2
04:19 13.6 °C 11.7 °C 1017.2 hPa Calm     86% 0 mm 0 W/m2
04:24 13.4 °C 11.6 °C 1017.2 hPa Calm     86% 0 mm 0 W/m2
04:29 13.3 °C 11.7 °C 1017.2 hPa Calm     86.8% 0 mm 0 W/m2
04:34 13.2 °C 11.7 °C 1017.2 hPa Calm     87% 0 mm 0 W/m2
04:39 13.2 °C 11.6 °C 1017.5 hPa North 2.6 km/h 8 km/h 87% 0 mm 0 W/m2
04:44 13.1 °C 11.5 °C 1017.5 hPa NNW 5.1 km/h 9.7 km/h 87% 0 mm 0 W/m2
04:49 13 °C 11.4 °C 1017.5 hPa NNW 3.2 km/h 9.7 km/h 87.4% 0 mm 0 W/m2
04:54 13.1 °C 11.6 °C 1017.2 hPa NNW 1.6 km/h 6.4 km/h 88% 0 mm 0 W/m2
04:59 13.1 °C 11.6 °C 1017.2 hPa Calm   6.4 km/h 88% 0 mm 0 W/m2
05:04 13.1 °C 11.6 °C 1017.2 hPa Calm     88% 0 mm 0 W/m2
05:09 13.1 °C 11.6 °C 1017.2 hPa Calm     88% 0 mm 0 W/m2
05:14 13 °C 11.6 °C 1017.2 hPa NNW 1 km/h 3.2 km/h 88% 0 mm 0 W/m2
05:19 13 °C 11.6 °C 1017.2 hPa NNW 1.3 km/h 3.2 km/h 88% 0 mm 0 W/m2
05:24 12.9 °C 11.5 °C 1017.2 hPa Calm     88% 0 mm 0 W/m2
05:29 12.9 °C 11.5 °C 1017.2 hPa Calm     88% 0 mm 0 W/m2
05:34 12.9 °C 11.5 °C 1016.8 hPa Calm     88% 0 mm 0 W/m2
05:39 12.8 °C 11.4 °C 1016.8 hPa Calm     88% 0 mm 0 W/m2
05:44 12.8 °C 11.4 °C 1016.8 hPa Calm     88% 0 mm 0 W/m2
05:49 12.8 °C 11.4 °C 1017.2 hPa Calm     88% 0 mm 0 W/m2
05:54 12.7 °C 11.3 °C 1017.2 hPa Calm     88% 0 mm 0 W/m2
05:59 12.7 °C 11.3 °C 1017.2 hPa Calm     88.4% 0 mm 0 W/m2
06:04 12.7 °C 11.4 °C 1017.2 hPa Calm     89% 0 mm 0 W/m2
06:08 12.7 °C 11.4 °C 1017.2 hPa Calm     89% 0 mm 0 W/m2
06:14 12.7 °C 11.4 °C 1017.2 hPa NNW 0.3 km/h 3.2 km/h 89% 0 mm 0 W/m2
06:19 12.7 °C 11.4 °C 1017.2 hPa Calm     89% 0 mm 0 W/m2
06:24 12.7 °C 11.4 °C 1017.2 hPa Calm     89% 0 mm 0 W/m2
06:29 12.8 °C 11.4 °C 1017.2 hPa Calm     89% 0 mm 0 W/m2
06:34 12.7 °C 11.4 °C 1017.2 hPa Calm     89% 0 mm 0 W/m2
06:39 12.7 °C 11.4 °C 1017.2 hPa Calm     89% 0 mm 0 W/m2
06:44 12.8 °C 11.4 °C 1017.2 hPa Calm     89% 0 mm 0 W/m2
06:49 12.7 °C 11.4 °C 1017.2 hPa Calm   1.6 km/h 89% 0 mm 5 W/m2
06:54 12.7 °C 11.4 °C 1017.2 hPa Calm   1.6 km/h 89% 0 mm 9 W/m2
06:59 12.8 °C 11.4 °C 1017.2 hPa Calm     89% 0 mm 12 W/m2
07:04 12.8 °C 11.5 °C 1016.8 hPa Calm     89% 0 mm 16 W/m2
07:09 12.8 °C 11.6 °C 1016.8 hPa NNW 0.6 km/h 3.2 km/h 89.6% 0 mm 18 W/m2
07:14 12.9 °C 11.8 °C 1016.8 hPa NNW 1 km/h 6.4 km/h 90% 0 mm 21 W/m2
07:19 13.2 °C 12.2 °C 1016.8 hPa East 4.5 km/h 9.7 km/h 90% 0 mm 25 W/m2
07:24 13.9 °C 12.8 °C 1016.5 hPa ESE 10.3 km/h 22.5 km/h 90% 0 mm 28 W/m2
07:29 14.9 °C 13.8 °C 1016.5 hPa ESE 7.2 km/h 17.7 km/h 89.8% 0 mm 32 W/m2
07:34 15.4 °C 13.9 °C 1016.5 hPa SE 6.1 km/h 11.3 km/h 88% 0 mm 35 W/m2
07:39 15.5 °C 13.7 °C 1016.5 hPa SSE 4.2 km/h 9.7 km/h 86.4% 0 mm 39 W/m2
07:44 15.3 °C 13.3 °C 1016.8 hPa SSE 1.9 km/h 8 km/h 85% 0 mm 44 W/m2
07:49 15.2 °C 13.1 °C 1016.8 hPa SSE 4.2 km/h 11.3 km/h 84.8% 0 mm 53 W/m2
07:54 15.1 °C 12.9 °C 1016.8 hPa South 4.7 km/h 9.7 km/h 84.2% 0 mm 69 W/m2
07:59 15.2 °C 13 °C 1016.8 hPa SE 5.1 km/h 12.9 km/h 84.2% 0 mm 81 W/m2
08:04 15.3 °C 13.2 °C 1016.8 hPa SE 4.5 km/h 12.9 km/h 84% 0 mm 81 W/m2
08:09 15.7 °C 13.3 °C 1016.8 hPa ESE 3.9 km/h 8 km/h 83.2% 0 mm 77 W/m2
08:14 15.9 °C 13.4 °C 1016.8 hPa SE 3.2 km/h 6.4 km/h 82.6% 0 mm 88 W/m2
08:19 16.2 °C 13.5 °C 1016.8 hPa SE 7.2 km/h 8 km/h 81.5% 0 mm 104 W/m2
08:24 16.4 °C 13.6 °C 1016.8 hPa SE 1.8 km/h 8 km/h 80.8% 0 mm 121 W/m2
08:29 16.6 °C 13.6 °C 1017.2 hPa SSE 0.6 km/h 3.2 km/h 80.2% 0 mm 142 W/m2
08:34 16.6 °C 13.6 °C 1017.2 hPa WSW 3.4 km/h 8 km/h 80% 0 mm 163 W/m2
08:39 16.6 °C 13.7 °C 1017.2 hPa NW 4.5 km/h 8 km/h 80.8% 0 mm 178 W/m2
08:44 16.4 °C 13.7 °C 1017.5 hPa WNW 5.8 km/h 11.3 km/h 81% 0 mm 169 W/m2
08:49 16.4 °C 13.7 °C 1017.5 hPa WNW 3.9 km/h 8 km/h 81.4% 0 mm 165 W/m2
08:54 16.4 °C 13.8 °C 1017.8 hPa WNW 7.6 km/h 9.7 km/h 82% 0 mm 167 W/m2
08:59 16.4 °C 13.8 °C 1017.8 hPa WNW 4.5 km/h 8 km/h 82% 0 mm 151 W/m2
09:04 16.7 °C 14.1 °C 1017.5 hPa WNW 4.8 km/h 8 km/h 81.8% 0 mm 232 W/m2
09:09 16.9 °C 14.1 °C 1017.5 hPa WNW 4 km/h 9.7 km/h 80.8% 0 mm 258 W/m2
09:14 17.3 °C 14.2 °C 1017.5 hPa WNW 3.9 km/h 6.4 km/h 79.5% 0 mm 229 W/m2
09:19 17.5 °C 14.2 °C 1017.5 hPa WNW 1 km/h 6.4 km/h 78.6% 0 mm 232 W/m2
09:24 17.8 °C 14.2 °C 1017.5 hPa WNW 1 km/h 3.2 km/h 77.4% 0 mm 258 W/m2
09:29 17.9 °C 14.3 °C 1017.5 hPa WNW 1.9 km/h 4.8 km/h 76.6% 0 mm 271 W/m2
09:34 18.1 °C 14.3 °C 1017.5 hPa WNW 1.8 km/h 4.8 km/h 76.2% 0 mm 281 W/m2
09:39 18.3 °C 14.5 °C 1017.5 hPa WNW 2.6 km/h 4.8 km/h 76% 0 mm 295 W/m2
09:44 18.3 °C 14.6 °C 1017.5 hPa WNW 2.4 km/h 6.4 km/h 76% 0 mm 318 W/m2
09:49 18.5 °C 14.6 °C 1017.5 hPa WNW 0.8 km/h 6.4 km/h 75.3% 0 mm 336 W/m2
09:54 19.1 °C 15 °C 1017.5 hPa WNW 0.8 km/h 3.2 km/h 75% 0 mm 350 W/m2
09:59 19.7 °C 15.1 °C 1017.5 hPa WNW 2.1 km/h 4.8 km/h 72.6% 0 mm 362 W/m2
10:04 19.7 °C 15 °C 1017.8 hPa WNW 1.9 km/h 4.8 km/h 72% 0 mm 362 W/m2
10:09 20 °C 15.3 °C 1017.8 hPa Calm   3.2 km/h 72% 0 mm 376 W/m2
10:14 20.4 °C 15.3 °C 1017.8 hPa WNW 0.6 km/h 3.2 km/h 70.6% 0 mm 378 W/m2
10:19 20.4 °C 15.3 °C 1017.8 hPa WNW 0.6 km/h 3.2 km/h 70.4% 0 mm 394 W/m2
10:24 20.7 °C 15.5 °C 1017.8 hPa WNW 1.1 km/h 4.8 km/h 70% 0 mm 403 W/m2
10:29 20.9 °C 15.6 °C 1017.8 hPa WNW 0.3 km/h 4.8 km/h 69.4% 0 mm 413 W/m2
10:34 21.3 °C 15.7 °C 1017.8 hPa WNW 1.6 km/h 3.2 km/h 68% 0 mm 427 W/m2
10:39 21.4 °C 15.7 °C 1017.8 hPa WNW 0.3 km/h 1.6 km/h 67.4% 0 mm 434 W/m2
10:44 21.3 °C 15.6 °C 1018.2 hPa WNW 1.4 km/h 6.4 km/h 68% 0 mm 441 W/m2
10:49 21.6 °C 15.9 °C 1018.2 hPa WNW 3.5 km/h 8 km/h 68% 0 mm 452 W/m2
10:54 21.9 °C 16.2 °C 1018.2 hPa NW 1.3 km/h 8 km/h 68% 0 mm 461 W/m2
10:59 22 °C 16.1 °C 1018.2 hPa WNW 3.5 km/h 6.4 km/h 67% 0 mm 471 W/m2
11:04 22.1 °C 16.1 °C 1018.2 hPa WNW 2.4 km/h 4.8 km/h 66.5% 0 mm 485 W/m2
11:09 22.2 °C 16.1 °C 1018.2 hPa WNW 3.5 km/h 6.4 km/h 66.4% 0 mm 545 W/m2
11:14 22.4 °C 16.3 °C 1018.2 hPa WNW 0.3 km/h 6.4 km/h 66.6% 0 mm 610 W/m2
11:19 22.8 °C 17 °C 1018.2 hPa WNW 1.4 km/h 4.8 km/h 67.8% 0 mm 302 W/m2
11:24 22.7 °C 17.1 °C 1018.2 hPa West 2.7 km/h 9.7 km/h 68.5% 0 mm 306 W/m2
11:29 22.5 °C 17.1 °C 1018.2 hPa West 4.2 km/h 8 km/h 69.6% 0 mm 376 W/m2
11:34 22.3 °C 17.3 °C 1018.2 hPa WNW 5 km/h 8 km/h 71.2% 0 mm 427 W/m2
11:49 22.3 °C 17.5 °C 1018.2 hPa WNW 7.6 km/h 14.5 km/h 72% 0 mm 598 W/m2
11:54 22.2 °C 17.4 °C 1018.2 hPa NW 7.2 km/h 12.9 km/h 72% 0 mm 269 W/m2
11:59 22.2 °C 17.4 °C 1018.2 hPa NW 5.6 km/h 9.7 km/h 72.4% 0 mm 352 W/m2
12:04 22.5 °C 17.7 °C 1018.2 hPa WNW 4.8 km/h 11.3 km/h 72% 0 mm 633 W/m2
12:09 23 °C 17.9 °C 1018.2 hPa West 6.6 km/h 17.7 km/h 70.8% 0 mm 617 W/m2
12:14 23.2 °C 17.9 °C 1018.2 hPa NW 6.1 km/h 14.5 km/h 70.2% 0 mm 599 W/m2
12:19 23.2 °C 17.8 °C 1018.2 hPa WNW 9.7 km/h 12.9 km/h 69.6% 0 mm 589 W/m2
12:24 23.2 °C 17.8 °C 1018.2 hPa WNW 8.9 km/h 16.1 km/h 69.8% 0 mm 594 W/m2
12:29 23.2 °C 17.8 °C 1018.2 hPa NW 7.4 km/h 12.9 km/h 69.8% 0 mm 591 W/m2
12:34 23.3 °C 18.1 °C 1018.2 hPa NNW 8 km/h 12.9 km/h 70.3% 0 mm 589 W/m2
12:39 23.6 °C 18.3 °C 1018.2 hPa NW 5.3 km/h 12.9 km/h 70% 0 mm 578 W/m2
12:44 23.8 °C 18.4 °C 1017.8 hPa WNW 7.4 km/h 16.1 km/h 69.8% 0 mm 594 W/m2
12:49 23.8 °C 18.4 °C 1017.8 hPa WNW 8.2 km/h 16.1 km/h 69.6% 0 mm 606 W/m2
12:54 23.8 °C 18.5 °C 1017.8 hPa WNW 8.4 km/h 19.3 km/h 70% 0 mm 619 W/m2
12:59 23.8 °C 18.3 °C 1018.2 hPa NW 10 km/h 16.1 km/h 69.2% 0 mm 626 W/m2
13:04 24.1 °C 18.2 °C 1018.2 hPa NW 7.1 km/h 12.9 km/h 67.8% 0 mm 499 W/m2
13:09 24.1 °C 18 °C 1017.8 hPa WNW 8 km/h 16.1 km/h 67% 0 mm 534 W/m2
13:14 24.1 °C 18.2 °C 1017.8 hPa NW 5.1 km/h 16.1 km/h 67.6% 0 mm 490 W/m2
13:19 24.2 °C 17.8 °C 1018.2 hPa NW 15.1 km/h 20.9 km/h 65.6% 0 mm 635 W/m2
13:24 23.8 °C 17.1 °C 1018.2 hPa NW 12.6 km/h 20.9 km/h 64% 0 mm 526 W/m2
13:29 23.4 °C 16.7 °C 1018.2 hPa NW 10 km/h 20.9 km/h 64.2% 0 mm 450 W/m2
13:34 23.6 °C 17 °C 1018.2 hPa NW 11.9 km/h 22.5 km/h 64.6% 0 mm 715 W/m2
13:39 23.7 °C 17.2 °C 1018.2 hPa NW 8 km/h 16.1 km/h 65% 0 mm 598 W/m2
13:44 23.4 °C 17 °C 1018.2 hPa NW 10.3 km/h 17.7 km/h 65.2% 0 mm 392 W/m2
13:49 23.6 °C 17.3 °C 1018.2 hPa NW 6.8 km/h 17.7 km/h 66% 0 mm 362 W/m2
13:54 23.7 °C 17.3 °C 1018.2 hPa NW 8.9 km/h 17.7 km/h 65.6% 0 mm 425 W/m2
13:59 23.6 °C 17.2 °C 1018.2 hPa WNW 7.9 km/h 17.7 km/h 65.2% 0 mm 492 W/m2
14:04 24 °C 17.4 °C 1018.2 hPa West 12.9 km/h 20.9 km/h 64.8% 0 mm 626 W/m2
14:09 24.1 °C 17.1 °C 1018.5 hPa NW 7.2 km/h 24.1 km/h 63.4% 0 mm 438 W/m2
14:14 23.8 °C 16.8 °C 1018.2 hPa WNW 10.8 km/h 17.7 km/h 63% 0 mm 462 W/m2
14:19 23.8 °C 17.1 °C 1018.2 hPa NW 7.7 km/h 17.7 km/h 63.8% 0 mm 503 W/m2
14:24 24.2 °C 17.3 °C 1018.2 hPa WNW 6.3 km/h 16.1 km/h 63.8% 0 mm 436 W/m2
14:29 24.1 °C 16.6 °C 1018.2 hPa WNW 12.2 km/h 20.9 km/h 61.2% 0 mm 404 W/m2
14:34 24 °C 16.4 °C 1018.2 hPa WNW 8 km/h 14.5 km/h 60.8% 0 mm 490 W/m2
14:39 24.1 °C 16.7 °C 1018.2 hPa WNW 6.8 km/h 14.5 km/h 61.3% 0 mm 401 W/m2
14:44 24.1 °C 16.7 °C 1018.2 hPa WNW 6.4 km/h 12.9 km/h 61.8% 0 mm 469 W/m2
14:49 24.3 °C 16.8 °C 1018.2 hPa West 7.1 km/h 12.9 km/h 61% 0 mm 336 W/m2
14:54 24.3 °C 16.8 °C 1018.2 hPa NW 6.4 km/h 12.9 km/h 61% 0 mm 278 W/m2
14:59 24.2 °C 16.7 °C 1018.2 hPa NW 7.4 km/h 19.3 km/h 61.2% 0 mm 276 W/m2
15:04 24.2 °C 16.7 °C 1017.8 hPa North 4 km/h 11.3 km/h 61% 0 mm 216 W/m2
15:09 24.1 °C 16.4 °C 1017.8 hPa NNW 7.9 km/h 12.9 km/h 60.6% 0 mm 227 W/m2
15:14 23.8 °C 16.4 °C 1018.2 hPa NW 5 km/h 11.3 km/h 61.6% 0 mm 216 W/m2
15:19 23.8 °C 16.7 °C 1018.2 hPa WNW 3.5 km/h 9.7 km/h 62.3% 0 mm 167 W/m2
15:24 23.9 °C 16.7 °C 1018.2 hPa NNW 4 km/h 8 km/h 62.2% 0 mm 181 W/m2
15:29 23.9 °C 16.8 °C 1018.2 hPa NW 3.4 km/h 6.4 km/h 62.8% 0 mm 318 W/m2
15:34 24.2 °C 16.9 °C 1017.8 hPa NW 2.9 km/h 9.7 km/h 62.2% 0 mm 499 W/m2
15:39 24.6 °C 17 °C 1017.8 hPa NW 6.9 km/h 11.3 km/h 61.2% 0 mm 617 W/m2
15:44 24.6 °C 17 °C 1017.8 hPa NW 7.2 km/h 11.3 km/h 61% 0 mm 441 W/m2
15:49 24.6 °C 17.1 °C 1017.8 hPa WNW 4 km/h 9.7 km/h 61.4% 0 mm 436 W/m2
15:54 24.7 °C 17.1 °C 1017.8 hPa WNW 4.8 km/h 11.3 km/h 61% 0 mm 494 W/m2
15:59 24.8 °C 17.2 °C 1017.8 hPa WNW 3.2 km/h 6.4 km/h 61.2% 0 mm 278 W/m2
16:04 24.7 °C 17.4 °C 1017.8 hPa NW 3.9 km/h 9.7 km/h 62% 0 mm 211 W/m2
16:09 24.7 °C 17.4 °C 1017.8 hPa WNW 5.3 km/h 11.3 km/h 62% 0 mm 204 W/m2
16:14 24.4 °C 17.3 °C 1017.8 hPa NW 3.4 km/h 11.3 km/h 62.6% 0 mm 223 W/m2
16:19 24.6 °C 17.6 °C 1017.8 hPa WNW 2.7 km/h 8 km/h 63% 0 mm 241 W/m2
16:24 24.7 °C 17.7 °C 1017.8 hPa WNW 5.3 km/h 8 km/h 63% 0 mm 246 W/m2
16:29 24.7 °C 17.8 °C 1018.2 hPa West 6.6 km/h 9.7 km/h 63.2% 0 mm 239 W/m2
16:34 24.7 °C 17.9 °C 1018.2 hPa West 4.5 km/h 8 km/h 64% 0 mm 237 W/m2
16:39 24.7 °C 18.3 °C 1018.2 hPa WNW 6.6 km/h 14.5 km/h 65.4% 0 mm 236 W/m2
16:44 24.6 °C 18.3 °C 1018.2 hPa WNW 8.7 km/h 14.5 km/h 66.2% 0 mm 202 W/m2
16:49 24.6 °C 18.4 °C 1018.2 hPa NW 5.8 km/h 11.3 km/h 67% 0 mm 234 W/m2
16:54 24.5 °C 18.4 °C 1018.2 hPa WNW 6.6 km/h 14.5 km/h 67% 0 mm 179 W/m2
16:59 24.3 °C 18.3 °C 1018.2 hPa WNW 6.4 km/h 14.5 km/h 67.2% 0 mm 197 W/m2
17:04 24.3 °C 18.3 °C 1017.8 hPa WNW 5.3 km/h 14.5 km/h 67.4% 0 mm 178 W/m2
17:09 24.2 °C 18.2 °C 1018.2 hPa WNW 7.2 km/h 14.5 km/h 67.2% 0 mm 134 W/m2
17:14 24.1 °C 18.1 °C 1017.8 hPa NW 6.8 km/h 12.9 km/h 67.4% 0 mm 113 W/m2
17:19 23.8 °C 17.7 °C 1017.8 hPa NW 7.2 km/h 12.9 km/h 66.5% 0 mm 97 W/m2
17:24 23.8 °C 17.6 °C 1017.8 hPa NW 5.8 km/h 11.3 km/h 66.2% 0 mm 91 W/m2
17:29 23.7 °C 17.7 °C 1017.8 hPa WNW 5.8 km/h 12.9 km/h 67% 0 mm 95 W/m2
17:34 23.7 °C 17.8 °C 1018.2 hPa WNW 4 km/h 9.7 km/h 67.8% 0 mm 83 W/m2
17:39 23.7 °C 17.9 °C 1018.2 hPa WNW 4.5 km/h 8 km/h 68% 0 mm 83 W/m2
17:44 23.7 °C 17.8 °C 1018.2 hPa West 3.9 km/h 8 km/h 68% 0 mm 93 W/m2
17:49 23.6 °C 17.8 °C 1018.2 hPa West 2.7 km/h 6.4 km/h 68.2% 0 mm 84 W/m2
17:54 23.5 °C 17.7 °C 1018.5 hPa West 5.1 km/h 9.7 km/h 68% 0 mm 83 W/m2
17:59 23.3 °C 17.5 °C 1018.2 hPa WNW 4.8 km/h 9.7 km/h 68% 0 mm 72 W/m2
18:03 23.2 °C 17.4 °C 1018.5 hPa WNW 4 km/h 8 km/h 68.3% 0 mm 63 W/m2
18:09 23.1 °C 17.6 °C 1018.5 hPa WNW 5.1 km/h 9.7 km/h 69% 0 mm 58 W/m2
18:14 22.9 °C 17.7 °C 1018.5 hPa WNW 5.1 km/h 8 km/h 70% 0 mm 54 W/m2
18:19 22.8 °C 17.7 °C 1018.5 hPa WNW 5.8 km/h 9.7 km/h 70.8% 0 mm 51 W/m2
18:24 22.5 °C 17.8 °C 1018.5 hPa West 6.3 km/h 11.3 km/h 72.6% 0 mm 46 W/m2
18:29 22 °C 17.4 °C 1018.5 hPa West 8 km/h 14.5 km/h 73% 0 mm 44 W/m2
18:34 21.6 °C 16.9 °C 1018.5 hPa West 10.1 km/h 14.5 km/h 73% 0 mm 40 W/m2
18:39 21.2 °C 16.6 °C 1018.8 hPa West 7.7 km/h 14.5 km/h 73% 0 mm 33 W/m2
18:44 20.9 °C 16.6 °C 1018.8 hPa WNW 5.5 km/h 11.3 km/h 74% 0 mm 33 W/m2
18:49 20.6 °C 16.3 °C 1018.8 hPa WNW 6.4 km/h 14.5 km/h 74% 0 mm 37 W/m2
18:54 20.5 °C 16.3 °C 1018.8 hPa WNW 6.4 km/h 9.7 km/h 74.6% 0 mm 39 W/m2
18:59 20.3 °C 16.3 °C 1018.8 hPa WNW 4 km/h 9.7 km/h 75% 0 mm 33 W/m2
19:04 20.2 °C 16.1 °C 1018.8 hPa West 7.2 km/h 12.9 km/h 75% 0 mm 25 W/m2
19:09 20 °C 15.9 °C 1018.8 hPa WNW 7.2 km/h 11.3 km/h 75% 0 mm 21 W/m2
19:14 19.8 °C 15.8 °C 1018.8 hPa WNW 7.7 km/h 12.9 km/h 75.2% 0 mm 14 W/m2
19:19 19.7 °C 15.8 °C 1018.8 hPa WNW 7.1 km/h 11.3 km/h 76% 0 mm 9 W/m2
19:24 19.7 °C 15.6 °C 1018.8 hPa West 4.7 km/h 9.7 km/h 75.4% 0 mm 5 W/m2
19:29 19.6 °C 15.7 °C 1018.8 hPa West 4.5 km/h 8 km/h 76% 0 mm 0 W/m2
19:34 19.4 °C 15.6 °C 1018.8 hPa West 3.5 km/h 8 km/h 76% 0 mm 0 W/m2
19:39 19.4 °C 15.5 °C 1019.2 hPa WNW 5.1 km/h 9.7 km/h 76% 0 mm 0 W/m2
19:44 19.3 °C 15.4 °C 1019.2 hPa WNW 4 km/h 9.7 km/h 76% 0 mm 0 W/m2
19:49 19.3 °C 15.4 °C 1019.2 hPa WNW 3.2 km/h 4.8 km/h 76% 0 mm 0 W/m2
19:54 19.2 °C 15.3 °C 1019.2 hPa WNW 5 km/h 8 km/h 76% 0 mm 0 W/m2
19:59 19.2 °C 15.3 °C 1019.2 hPa WNW 2.6 km/h 6.4 km/h 76% 0 mm 0 W/m2
20:04 19.1 °C 15.3 °C 1019.2 hPa WNW 5.5 km/h 8 km/h 76% 0 mm 0 W/m2
20:09 19 °C 15.2 °C 1019.5 hPa WNW 3.2 km/h 6.4 km/h 76% 0 mm 0 W/m2
20:14 18.9 °C 15.2 °C 1019.5 hPa WNW 4 km/h 8 km/h 76.2% 0 mm 0 W/m2
20:19 18.8 °C 15.3 °C 1019.5 hPa WNW 5.1 km/h 9.7 km/h 77% 0 mm 0 W/m2
20:24 18.8 °C 15.2 °C 1019.5 hPa WNW 3.9 km/h 8 km/h 77% 0 mm 0 W/m2
20:29 18.8 °C 15.2 °C 1019.5 hPa WNW 3.9 km/h 8 km/h 77% 0 mm 0 W/m2
20:34 18.7 °C 15.2 °C 1019.5 hPa WNW 1.6 km/h 6.4 km/h 77.2% 0 mm 0 W/m2
20:39 18.6 °C 15.2 °C 1019.9 hPa WNW 4.5 km/h 6.4 km/h 78% 0 mm 0 W/m2
20:44 18.6 °C 15.2 °C 1019.9 hPa WNW 4 km/h 6.4 km/h 78% 0 mm 0 W/m2
20:46 18.5 °C 15.1 °C 1019.9 hPa NW 1.6 km/h 8 km/h 78% 0 mm 0 W/m2
20:54 18.4 °C 15.2 °C 1019.9 hPa WNW 4 km/h 6.4 km/h 78.8% 0 mm 0 W/m2
20:59 18.3 °C 15.2 °C 1019.9 hPa WNW 2.1 km/h 4.8 km/h 79% 0 mm 0 W/m2
21:04 18.3 °C 15.1 °C 1019.9 hPa WNW 1.3 km/h 3.2 km/h 79% 0 mm 0 W/m2
21:09 18.2 °C 15.1 °C 1019.9 hPa WNW 2.7 km/h 4.8 km/h 79% 0 mm 0 W/m2
21:14 18.2 °C 15 °C 1020.2 hPa WNW 2.1 km/h 6.4 km/h 79.2% 0 mm 0 W/m2
21:19 18.1 °C 15.1 °C 1020.2 hPa WNW 4.7 km/h 8 km/h 80% 0 mm 0 W/m2
21:24 18 °C 15 °C 1020.2 hPa NW 4.8 km/h 6.4 km/h 80% 0 mm 0 W/m2
21:29 17.9 °C 14.9 °C 1020.2 hPa NW 6.6 km/h 9.7 km/h 80.2% 0 mm 0 W/m2
21:34 17.9 °C 15.1 °C 1020.2 hPa NW 4.8 km/h 9.7 km/h 81% 0 mm 0 W/m2
21:39 17.8 °C 15 °C 1020.2 hPa NW 4.8 km/h 8 km/h 81% 0 mm 0 W/m2
21:44 17.7 °C 15.1 °C 1020.2 hPa WNW 3.2 km/h 8 km/h 82% 0 mm 0 W/m2
21:49 17.7 °C 15.1 °C 1020.5 hPa WNW 4 km/h 8 km/h 82% 0 mm 0 W/m2
21:54 17.6 °C 15 °C 1020.5 hPa WNW 3.9 km/h 6.4 km/h 82% 0 mm 0 W/m2
21:59 17.4 °C 14.9 °C 1020.5 hPa WNW 2.1 km/h 6.4 km/h 82.4% 0 mm 0 W/m2
22:04 17.3 °C 14.9 °C 1020.5 hPa WNW 4 km/h 6.4 km/h 83% 0 mm 0 W/m2
22:09 17.2 °C 14.8 °C 1020.5 hPa WNW 4.8 km/h 8 km/h 83.2% 0 mm 0 W/m2
22:14 17 °C 14.8 °C 1020.5 hPa WNW 7.1 km/h 9.7 km/h 84% 0 mm 0 W/m2
22:19 16.8 °C 14.7 °C 1020.5 hPa WNW 5.3 km/h 9.7 km/h 84.4% 0 mm 0 W/m2
22:24 16.8 °C 14.8 °C 1020.5 hPa WNW 3.5 km/h 9.7 km/h 85% 0 mm 0 W/m2
22:29 16.8 °C 14.8 °C 1020.5 hPa WNW 3.9 km/h 9.7 km/h 85.8% 0 mm 0 W/m2
22:34 16.7 °C 14.8 °C 1020.5 hPa WNW 3.5 km/h 8 km/h 86% 0 mm 0 W/m2
22:39 16.6 °C 14.7 °C 1020.5 hPa WNW 4.5 km/h 8 km/h 86% 0 mm 0 W/m2
22:44 16.5 °C 14.8 °C 1020.5 hPa WNW 4 km/h 6.4 km/h 87% 0 mm 0 W/m2
22:49 16.4 °C 14.7 °C 1020.5 hPa WNW 4 km/h 6.4 km/h 87% 0 mm 0 W/m2
22:54 16.3 °C 14.8 °C 1020.5 hPa WNW 5.3 km/h 6.4 km/h 87.6% 0 mm 0 W/m2
22:59 16.3 °C 14.8 °C 1020.5 hPa WNW 6 km/h 9.7 km/h 88% 0 mm 0 W/m2
23:04 16.3 °C 14.8 °C 1020.5 hPa NW 6.3 km/h 8 km/h 88% 0 mm 0 W/m2
23:09 16.2 °C 14.8 °C 1020.5 hPa NW 3.2 km/h 8 km/h 88.8% 0 mm 0 W/m2
23:14 16.1 °C 14.8 °C 1020.5 hPa NW 3.9 km/h 6.4 km/h 89% 0 mm 0 W/m2
23:18 16.1 °C 14.8 °C 1020.5 hPa NW 2.7 km/h 4.8 km/h 89% 0 mm 0 W/m2
23:24 16 °C 14.7 °C 1020.5 hPa NW 1.4 km/h 4.8 km/h 89% 0 mm 0 W/m2
23:29 15.9 °C 14.7 °C 1020.9 hPa NW 2.7 km/h 4.8 km/h 89.6% 0 mm 0 W/m2
23:34 15.8 °C 14.7 °C 1020.9 hPa NW 2.3 km/h 4.8 km/h 90% 0 mm 0 W/m2
23:39 15.8 °C 14.7 °C 1020.9 hPa NW 2.6 km/h 4.8 km/h 90% 0 mm 0 W/m2
23:44 15.7 °C 14.6 °C 1020.9 hPa WNW 3.5 km/h 6.4 km/h 90% 0 mm 0 W/m2
23:49 15.6 °C 14.5 °C 1020.9 hPa WNW 2.6 km/h 6.4 km/h 90% 0 mm 0 W/m2
23:54 15.6 °C 14.6 °C 1020.9 hPa WNW 0.8 km/h 4.8 km/h 91% 0 mm 0 W/m2
23:59 15.4 °C 14.4 °C 1020.9 hPa WNW 2.9 km/h 8 km/h 91% 0 mm 0 W/m2
Bath Spa Weather
Compliments of Weather Underground - 2 mb